createdAt,value
2023-05-01T00:00:04.166Z,5.2
2023-05-01T00:05:00.949Z,5.3
2023-05-01T00:10:01.222Z,5.3
2023-05-01T00:15:00.594Z,5.1
2023-05-01T00:20:01.085Z,5.3
2023-05-01T00:25:01.013Z,5.2
2023-05-01T00:30:00.885Z,5.3
2023-05-01T00:35:00.953Z,5.2
2023-05-01T00:40:02.284Z,5.4
2023-05-01T00:45:01.499Z,5.2
2023-05-01T00:50:02.386Z,5.3
2023-05-01T00:55:00.605Z,5.3
2023-05-01T01:00:00.737Z,5.2
2023-05-01T01:05:01.239Z,5.2
2023-05-01T01:10:01.673Z,5.1
2023-05-01T01:15:00.919Z,5.1
2023-05-01T01:20:00.888Z,5.0
2023-05-01T01:25:02.677Z,4.9
2023-05-01T01:30:01.277Z,5.1
2023-05-01T01:35:00.717Z,5.1
2023-05-01T01:40:01.660Z,4.9
2023-05-01T01:45:01.326Z,4.9
2023-05-01T01:50:02.616Z,4.9
2023-05-01T01:55:02.135Z,4.9
2023-05-01T02:00:02.071Z,4.9
2023-05-01T02:05:01.452Z,4.8
2023-05-01T02:10:00.885Z,4.7
2023-05-01T02:15:01.473Z,4.6
2023-05-01T02:20:01.595Z,4.7
2023-05-01T02:25:01.892Z,4.6
2023-05-01T02:30:01.822Z,4.7
2023-05-01T02:35:00.788Z,4.6
2023-05-01T02:40:00.824Z,4.6
2023-05-01T02:45:01.067Z,4.5
2023-05-01T02:50:02.290Z,4.6
2023-05-01T02:55:01.180Z,4.5
2023-05-01T03:00:00.987Z,4.4
2023-05-01T03:05:03.198Z,4.4
2023-05-01T03:10:03.203Z,4.5
2023-05-01T03:15:03.419Z,4.4
2023-05-01T03:20:01.986Z,4.2
2023-05-01T03:25:01.564Z,4.4
2023-05-01T03:30:03.555Z,4.7
2023-05-01T03:35:03.264Z,4.5
2023-05-01T03:40:01.758Z,4.4
2023-05-01T03:45:01.091Z,4.5
2023-05-01T03:50:03.505Z,4.6
2023-05-01T03:55:00.710Z,4.6
2023-05-01T04:00:03.981Z,4.7
2023-05-01T04:05:00.954Z,4.8
2023-05-01T04:10:00.957Z,4.9
2023-05-01T04:15:00.871Z,4.9
2023-05-01T04:20:00.871Z,4.9
2023-05-01T04:25:00.849Z,4.9
2023-05-01T04:30:00.888Z,4.8
2023-05-01T04:35:01.349Z,4.8
2023-05-01T21:40:00.740Z,8.8
2023-05-01T21:45:00.285Z,8.8
2023-05-01T21:50:00.751Z,8.4
2023-05-01T21:55:00.316Z,8.1
2023-05-01T22:00:00.615Z,8.2
2023-05-01T22:05:00.293Z,8.2
2023-05-01T22:10:00.650Z,8.1
2023-05-01T22:15:00.236Z,8.2
2023-05-01T22:20:00.540Z,8.0
2023-05-01T22:25:00.358Z,8.0
2023-05-01T22:30:00.578Z,8.1
2023-05-01T22:35:00.248Z,7.9
2023-05-01T22:40:00.871Z,8.0
2023-05-01T22:45:00.340Z,8.0
2023-05-01T22:50:00.739Z,7.8
2023-05-01T22:55:00.343Z,8.0
2023-05-01T23:00:00.945Z,8.0
2023-05-01T23:05:00.341Z,7.9
2023-05-01T23:10:00.781Z,8.1
2023-05-01T23:15:00.329Z,8.1
2023-05-01T23:20:00.622Z,8.2
2023-05-01T23:25:00.220Z,8.3
2023-05-01T23:30:00.881Z,8.4
2023-05-01T23:35:00.303Z,8.3
2023-05-01T23:40:00.586Z,8.3
2023-05-01T23:45:00.329Z,8.2
2023-05-01T23:50:00.647Z,8.2
2023-05-01T23:55:00.318Z,8.3
